Time;durP1;ratioP1;P1;durP2;ratioP2;P2;SDS_P1;SDS_P2;PMS_P1;PMS_P2;Temp;Humidity;BMP_temperature;BMP_pressure;BME280_temperature;BME280_humidity;BME280_pressure;Samples;Min_cycle;Max_cycle;Signal;HPM_P1;HPM_P2
2021/09/18 07:02:21;;;;;;;7.87;7.07;;;;;;;11.36;96.99;98828.38;5093410;23;20303;-72
2021/09/18 07:04:47;;;;;;;10.82;7.00;;;;;;;11.77;93.90;98834.47;4957405;28;20291;-71
2021/09/18 07:07:12;;;;;;;8.98;6.25;;;;;;;11.89;92.58;98834.19;4966732;28;20027;-71
2021/09/18 07:09:37;;;;;;;6.80;5.95;;;;;;;12.72;89.90;98821.84;4960981;28;20019;-71
2021/09/18 07:12:03;;;;;;;13.55;6.30;;;;;;;13.80;83.32;98823.16;4962477;28;20029;-71
2021/09/18 07:14:28;;;;;;;20.17;7.20;;;;;;;13.29;84.44;98826.38;4956652;28;20086;-71
2021/09/18 07:16:54;;;;;;;21.38;6.40;;;;;;;14.41;81.19;98821.22;4959613;28;20023;-75
2021/09/18 07:19:19;;;;;;;10.95;5.68;;;;;;;15.41;76.11;98814.25;4960272;28;20030;-76
2021/09/18 07:21:44;;;;;;;11.65;5.32;;;;;;;16.21;70.81;98815.59;4963407;28;20051;-78
2021/09/18 07:24:10;;;;;;;6.75;5.13;;;;;;;15.20;73.33;98829.84;4961384;28;20027;-77
2021/09/18 07:26:36;;;;;;;4.78;4.38;;;;;;;16.59;69.61;98822.72;4955139;28;20072;-75
2021/09/18 07:29:03;;;;;;;7.55;4.18;;;;;;;16.85;67.65;98823.41;4957576;28;20027;-77
2021/09/18 07:31:28;;;;;;;8.18;4.35;;;;;;;16.70;66.33;98825.72;4961048;28;20027;-77
2021/09/18 07:33:53;;;;;;;5.03;3.88;;;;;;;16.43;68.90;98832.09;4964432;28;20626;-77
2021/09/18 07:36:19;;;;;;;6.38;3.72;;;;;;;15.06;74.03;98839.03;4962216;28;20084;-77
2021/09/18 07:38:44;;;;;;;4.40;4.00;;;;;;;14.79;75.65;98835.59;4962523;28;20102;-76
2021/09/18 07:41:10;;;;;;;4.50;4.07;;;;;;;14.13;79.19;98844.72;4960412;28;20023;-77
2021/09/18 07:43:35;;;;;;;6.38;4.85;;;;;;;14.14;80.62;98839.44;4958805;28;20388;-77
2021/09/18 07:46:02;;;;;;;10.98;4.82;;;;;;;13.96;81.94;98840.00;4964253;28;20022;-76
2021/09/18 07:48:28;;;;;;;5.50;5.00;;;;;;;14.24;80.94;98837.41;4969402;28;20539;-76
2021/09/18 07:50:55;;;;;;;9.20;5.43;;;;;;;13.43;84.87;98842.44;4961990;28;20027;-76
2021/09/18 07:53:20;;;;;;;5.70;4.72;;;;;;;13.81;85.19;98843.09;4960708;28;20518;-76
2021/09/18 07:55:46;;;;;;;5.72;5.13;;;;;;;13.82;84.25;98839.56;4966370;28;20030;-76
2021/09/18 07:58:11;;;;;;;7.00;5.70;;;;;;;13.83;82.71;98833.50;4966019;28;20023;-76
2021/09/18 08:00:37;;;;;;;6.32;5.72;;;;;;;13.73;84.23;98840.72;4961696;28;20026;-77
2021/09/18 08:03:02;;;;;;;11.43;6.78;;;;;;;14.09;83.93;98833.53;4959033;28;20063;-77
2021/09/18 08:05:28;;;;;;;7.97;6.60;;;;;;;14.28;82.35;98828.59;4963097;28;20126;-76
2021/09/18 08:07:53;;;;;;;6.82;6.22;;;;;;;15.15;79.27;98825.66;4960603;28;20034;-77
2021/09/18 08:10:18;;;;;;;6.50;5.78;;;;;;;16.41;73.65;98819.09;4964867;28;20027;-76
2021/09/18 08:12:47;;;;;;;6.85;5.45;;;;;;;19.50;61.87;98808.91;4962834;28;20476;-76
2021/09/18 08:15:13;;;;;;;6.97;4.93;;;;;;;22.20;51.83;98818.44;4961722;28;20031;-77
2021/09/18 08:17:39;;;;;;;9.18;6.20;;;;;;;22.95;47.99;98812.59;4959053;28;20580;-78
2021/09/18 08:20:05;;;;;;;5.72;4.75;;;;;;;24.54;44.87;98811.88;4959733;28;20042;-78
2021/09/18 08:22:30;;;;;;;9.38;5.15;;;;;;;25.97;41.20;98813.16;4960029;28;20027;-78
2021/09/18 08:24:57;;;;;;;6.80;5.10;;;;;;;27.70;37.66;98819.00;4964900;28;20023;-77
2021/09/18 08:27:23;;;;;;;5.57;4.40;;;;;;;28.69;36.03;98815.44;4959117;28;20019;-77
2021/09/18 08:29:48;;;;;;;4.80;4.18;;;;;;;29.08;35.02;98824.25;4962126;28;20096;-77
2021/09/18 08:32:13;;;;;;;6.32;3.85;;;;;;;28.50;36.42;98818.09;4963283;28;20524;-78
2021/09/18 08:34:39;;;;;;;9.52;3.95;;;;;;;29.67;33.09;98819.56;4958898;28;20062;-77
2021/09/18 08:37:04;;;;;;;8.80;4.22;;;;;;;29.20;34.42;98816.91;4958083;28;20417;-77
2021/09/18 08:39:30;;;;;;;8.88;3.88;;;;;;;30.06;32.30;98814.00;4961070;28;20078;-77
2021/09/18 08:41:57;;;;;;;4.57;3.30;;;;;;;29.65;34.63;98817.06;4955728;28;20504;-77
2021/09/18 08:44:22;;;;;;;8.70;3.33;;;;;;;30.88;31.54;98811.16;4961240;28;20038;-78
2021/09/18 08:46:49;;;;;;;4.10;3.70;;;;;;;30.85;31.34;98815.97;4955091;28;20022;-77
2021/09/18 08:49:14;;;;;;;3.80;3.28;;;;;;;30.68;31.26;98815.81;4963837;28;20035;-78
2021/09/18 08:51:44;;;;;;;4.05;3.53;;;;;;;30.14;32.45;98816.81;4968639;28;20065;-77
2021/09/18 08:54:09;;;;;;;13.95;10.80;;;;;;;30.39;32.44;98816.06;4962313;28;20031;-78
2021/09/18 08:56:34;;;;;;;7.60;3.25;;;;;;;31.37;30.94;98811.50;4959173;28;20090;-78
2021/09/18 08:59:00;;;;;;;6.80;3.27;;;;;;;26.58;37.79;98821.41;4957832;28;20123;-77
2021/09/18 09:01:26;;;;;;;3.15;2.85;;;;;;;29.09;34.23;98814.41;4962571;28;20273;-77
2021/09/18 09:03:57;;;;;;;2.75;2.55;;;;;;;28.50;34.22;98812.78;4955591;28;20554;-78
2021/09/18 09:06:24;;;;;;;4.32;2.35;;;;;;;29.67;32.62;98808.88;4958859;28;20023;-78
2021/09/18 09:08:57;;;;;;;2.78;2.10;;;;;;;31.82;29.62;98809.59;4960243;28;20159;-78
2021/09/18 09:11:27;;;;;;;6.85;2.38;;;;;;;32.24;29.12;98804.13;4964515;28;20019;-77
2021/09/18 09:13:55;;;;;;;3.17;2.35;;;;;;;32.16;28.70;98806.81;4961526;28;20047;-77
2021/09/18 09:16:21;;;;;;;3.60;2.58;;;;;;;32.32;28.07;98801.47;4963276;28;20015;-77
2021/09/18 09:18:47;;;;;;;4.38;2.28;;;;;;;32.01;28.68;98797.72;4971075;28;20026;-77
2021/09/18 09:21:27;;;;;;;7.85;2.55;;;;;;;32.13;28.37;98797.25;4963178;28;20026;-77
2021/09/18 09:24:08;;;;;;;5.68;2.20;;;;;;;31.36;29.07;98799.13;4964932;28;20026;-78
2021/09/18 09:26:35;;;;;;;2.67;1.95;;;;;;;32.16;29.27;98796.09;4959224;28;20027;-78
2021/09/18 09:29:01;;;;;;;2.20;1.60;;;;;;;32.50;26.47;98787.97;4959423;28;20031;-78
2021/09/18 09:31:28;;;;;;;2.45;1.60;;;;;;;32.80;27.11;98789.13;4959039;28;20034;-78
2021/09/18 09:34:18;;;;;;;1.67;1.58;;;;;;;31.85;26.96;98794.00;4960482;28;20027;-78
2021/09/18 09:36:48;;;;;;;1.88;1.70;;;;;;;31.56;27.05;98794.34;4960051;28;20036;-78
2021/09/18 09:39:17;;;;;;;1.55;1.45;;;;;;;32.99;26.67;98783.41;4956182;28;20105;-77
2021/09/18 09:41:48;;;;;;;2.75;1.70;;;;;;;33.60;25.61;98774.84;4966727;28;20050;-77
2021/09/18 09:44:20;;;;;;;1.67;1.33;;;;;;;32.13;26.11;98780.31;4956821;28;20038;-78
2021/09/18 09:47:08;;;;;;;3.45;1.70;;;;;;;29.83;28.79;98787.69;4962433;28;20019;-78
2021/09/18 09:49:47;;;;;;;4.03;1.48;;;;;;;30.93;27.57;98781.25;4955694;28;20105;-78
2021/09/18 09:52:24;;;;;;;1.30;1.20;;;;;;;33.67;24.71;98781.22;4961704;28;20082;-78
2021/09/18 09:54:50;;;;;;;2.92;1.80;;;;;;;33.04;25.25;98774.00;4960473;28;20601;-78
2021/09/18 09:57:16;;;;;;;1.35;1.25;;;;;;;32.75;24.30;98770.00;4962609;28;20034;-78
2021/09/18 09:59:42;;;;;;;1.55;1.17;;;;;;;32.57;24.32;98772.00;4959237;28;20019;-78
2021/09/18 10:02:09;;;;;;;1.58;1.00;;;;;;;31.73;23.65;98771.16;4965393;28;20496;-77
2021/09/18 10:04:35;;;;;;;1.27;1.20;;;;;;;30.77;25.50;98771.28;4958537;28;20081;-77
2021/09/18 10:07:01;;;;;;;1.75;0.77;;;;;;;30.89;25.98;98770.00;4963149;28;20027;-77
2021/09/18 10:09:27;;;;;;;0.70;0.70;;;;;;;29.85;25.96;98777.72;4961800;28;20488;-77
2021/09/18 10:11:54;;;;;;;1.50;1.40;;;;;;;29.80;26.30;98766.66;4958985;28;20031;-77
2021/09/18 10:14:21;;;;;;;1.27;1.15;;;;;;;29.36;25.16;98779.78;4957400;28;20063;-77
2021/09/18 10:16:48;;;;;;;1.30;0.90;;;;;;;30.30;25.70;98771.53;4959829;28;20485;-77
2021/09/18 10:19:15;;;;;;;0.80;0.80;;;;;;;30.21;26.35;98764.41;4963982;28;20113;-77
2021/09/18 10:24:25;;;;;;;1.75;1.05;;;;;;;31.02;25.67;98763.41;4956978;28;20515;-77
2021/09/18 10:27:19;;;;;;;1.10;0.90;;;;;;;32.38;24.57;98752.56;4954492;28;20023;-77
2021/09/18 10:29:46;;;;;;;0.82;0.82;;;;;;;31.94;23.20;98755.47;4961280;28;20022;-77
2021/09/18 10:32:11;;;;;;;3.95;1.00;;;;;;;32.39;23.49;98758.75;4959696;28;20027;-77
2021/09/18 10:34:37;;;;;;;3.97;1.10;;;;;;;31.43;24.71;98751.97;4953458;28;20054;-77
2021/09/18 10:37:03;;;;;;;0.85;0.80;;;;;;;33.26;22.73;98757.16;4956774;28;20027;-78
2021/09/18 10:39:28;;;;;;;1.20;1.10;;;;;;;32.98;23.20;98744.16;4960713;28;20027;-78
2021/09/18 10:41:56;;;;;;;1.13;1.02;;;;;;;32.69;23.68;98746.53;4959841;28;20106;-77
2021/09/18 10:44:24;;;;;;;6.40;5.20;;;;;;;31.39;25.02;98750.59;4958678;28;20031;-77
2021/09/18 10:46:52;;;;;;;1.20;1.10;;;;;;;31.34;23.74;98744.88;4958837;28;20479;-78
2021/09/18 10:49:29;;;;;;;3.92;0.70;;;;;;;31.58;23.04;98738.78;4958716;28;20027;-77
2021/09/18 10:52:15;;;;;;;2.33;1.00;;;;;;;31.82;24.04;98738.06;4961068;28;20319;-77
2021/09/18 10:55:04;;;;;;;1.17;1.08;;;;;;;31.97;24.00;98744.44;4964915;28;20515;-78
2021/09/18 10:57:39;;;;;;;3.95;3.55;;;;;;;32.98;23.47;98733.41;4959345;28;20073;-77
2021/09/18 11:00:09;;;;;;;1.30;0.88;;;;;;;30.86;24.54;98735.56;4963325;28;20036;-77
2021/09/18 11:02:34;;;;;;;1.80;0.77;;;;;;;30.21;25.17;98733.19;4966514;28;20023;-78
2021/09/18 11:05:03;;;;;;;2.00;0.97;;;;;;;30.73;26.24;98736.97;4961518;28;20031;-78
2021/09/18 11:07:40;;;;;;;1.02;0.93;;;;;;;30.93;24.87;98733.91;4966620;28;20275;-78
2021/09/18 11:10:21;;;;;;;2.10;0.90;;;;;;;28.56;28.42;98732.22;4966092;28;20053;-77
2021/09/18 11:13:08;;;;;;;0.85;0.85;;;;;;;29.36;27.10;98730.88;4961957;28;20086;-77
2021/09/18 11:16:05;;;;;;;0.70;0.70;;;;;;;29.85;27.22;98726.97;4959723;28;20487;-77
2021/09/18 11:18:42;;;;;;;6.60;5.93;;;;;;;31.10;24.77;98721.47;4966847;28;20055;-77
2021/09/18 11:21:10;;;;;;;1.10;1.00;;;;;;;30.77;25.45;98720.44;4965735;28;20047;-77
2021/09/18 11:23:38;;;;;;;2.92;0.82;;;;;;;31.19;25.44;98723.19;4963625;28;20026;-77
2021/09/18 11:26:32;;;;;;;3.87;1.03;;;;;;;32.17;23.96;98717.31;4958151;28;20031;-77
2021/09/18 11:29:22;;;;;;;2.25;0.88;;;;;;;33.36;23.24;98720.16;4962153;28;20106;-77
2021/09/18 11:32:10;;;;;;;1.60;1.20;;;;;;;32.76;23.48;98712.63;4964822;28;20074;-77
2021/09/18 11:34:41;;;;;;;1.13;0.77;;;;;;;31.38;24.65;98716.78;4960682;28;20447;-77
2021/09/18 11:37:09;;;;;;;0.90;0.90;;;;;;;32.88;23.50;98719.31;4963817;28;20026;-77
2021/09/18 11:39:46;;;;;;;2.03;1.38;;;;;;;31.37;28.14;98714.25;4960509;28;20526;-77
2021/09/18 11:42:15;;;;;;;2.28;1.58;;;;;;;30.66;28.42;98709.97;4962342;28;20039;-77
2021/09/18 11:44:41;;;;;;;1.58;1.48;;;;;;;32.31;26.04;98713.97;4962473;28;20026;-77
2021/09/18 11:47:07;;;;;;;3.47;2.75;;;;;;;33.41;25.29;98703.53;4960533;28;20495;-77
2021/09/18 11:49:32;;;;;;;2.08;1.50;;;;;;;32.92;25.66;98701.84;4962124;28;20109;-78
2021/09/18 11:52:03;;;;;;;1.77;1.67;;;;;;;34.24;24.49;98694.84;4962436;28;20034;-78
2021/09/18 11:54:31;;;;;;;2.78;1.58;;;;;;;30.30;29.33;98699.34;4960485;28;20027;-77
2021/09/18 11:57:12;;;;;;;1.70;1.50;;;;;;;28.27;32.08;98701.06;4966254;28;20022;-77
2021/09/18 11:59:38;;;;;;;2.97;1.95;;;;;;;28.35;33.25;98692.41;4965092;28;20157;-77
2021/09/18 12:02:04;;;;;;;1.80;1.70;;;;;;;26.24;36.48;98690.50;4961838;28;20038;-78
2021/09/18 12:04:43;;;;;;;1.83;1.73;;;;;;;27.63;35.63;98685.59;4961631;28;20509;-77
2021/09/18 12:07:10;;;;;;;2.65;1.58;;;;;;;27.29;34.83;98688.59;4958049;28;20039;-77
2021/09/18 12:09:36;;;;;;;1.75;1.65;;;;;;;26.05;36.46;98696.50;4962410;28;20066;-78
2021/09/18 12:12:01;;;;;;;2.38;2.05;;;;;;;23.78;40.03;98696.56;4966887;28;20559;-77
2021/09/18 12:14:36;;;;;;;5.13;4.70;;;;;;;25.35;39.04;98687.16;4959667;28;20070;-77
2021/09/18 12:17:17;;;;;;;5.72;2.28;;;;;;;24.99;38.00;98684.72;4964915;28;20089;-77
2021/09/18 12:19:44;;;;;;;2.33;1.92;;;;;;;24.69;40.35;98688.81;4960901;28;20023;-77
2021/09/18 12:22:09;;;;;;;4.68;2.15;;;;;;;24.47;41.45;98678.19;4965066;28;20050;-77
2021/09/18 12:24:37;;;;;;;3.65;2.17;;;;;;;23.93;42.19;98678.69;4959563;28;20106;-77
2021/09/18 12:27:22;;;;;;;2.63;2.42;;;;;;;24.24;40.71;98678.09;4965084;28;20081;-77
2021/09/18 12:29:58;;;;;;;3.15;1.92;;;;;;;23.93;40.64;98678.69;4961893;28;20038;-77
2021/09/18 12:32:25;;;;;;;2.67;2.47;;;;;;;22.04;46.01;98681.28;4962116;28;20180;-77
2021/09/18 12:34:50;;;;;;;4.85;2.70;;;;;;;22.48;46.25;98676.63;4961570;28;20019;-77
2021/09/18 12:37:17;;;;;;;2.42;2.22;;;;;;;22.29;47.03;98683.19;4957270;28;20023;-77
2021/09/18 12:39:43;;;;;;;3.45;2.50;;;;;;;22.90;45.98;98678.16;4961142;28;20030;-77
2021/09/18 12:42:10;;;;;;;3.13;2.70;;;;;;;22.23;48.51;98673.03;4958238;28;20030;-77
2021/09/18 12:44:38;;;;;;;3.28;2.25;;;;;;;22.06;47.45;98668.03;4967096;28;20034;-77
2021/09/18 12:47:03;;;;;;;2.40;2.20;;;;;;;22.70;47.83;98670.75;4960937;28;20015;-77
2021/09/18 12:49:33;;;;;;;2.53;2.33;;;;;;;23.27;44.86;98671.09;4964311;28;20397;-77
2021/09/18 12:52:04;;;;;;;2.75;2.47;;;;;;;22.68;45.39;98670.00;4960135;28;20030;-77
2021/09/18 12:54:41;;;;;;;4.93;2.60;;;;;;;22.19;45.42;98679.50;4958816;28;20035;-77
2021/09/18 12:57:06;;;;;;;2.42;2.25;;;;;;;21.95;45.31;98678.41;4960330;28;20054;-77
2021/09/18 12:59:41;;;;;;;5.72;2.60;;;;;;;22.02;43.52;98674.44;4960375;28;20031;-77
2021/09/18 13:02:06;;;;;;;3.70;2.33;;;;;;;21.85;42.63;98677.34;4961698;28;20033;-77
2021/09/18 13:04:33;;;;;;;2.35;2.00;;;;;;;22.20;42.12;98678.53;4959072;28;20019;-77
2021/09/18 13:07:06;;;;;;;1.90;1.80;;;;;;;22.63;39.88;98675.63;4955320;28;20481;-77
2021/09/18 13:09:34;;;;;;;2.67;2.25;;;;;;;22.85;39.28;98674.94;4960234;28;20066;-77
2021/09/18 13:12:08;;;;;;;2.75;1.70;;;;;;;23.32;36.97;98668.13;4963283;28;20079;-77
2021/09/18 13:14:36;;;;;;;2.60;2.13;;;;;;;23.05;39.42;98665.66;4964566;28;20023;-77
2021/09/18 13:17:07;;;;;;;7.07;2.75;;;;;;;23.15;38.85;98666.69;4960864;28;20101;-72
2021/09/18 13:19:44;;;;;;;2.67;2.42;;;;;;;22.93;41.91;98658.59;4960167;28;20027;-72
2021/09/18 13:22:10;;;;;;;2.83;2.53;;;;;;;22.54;44.74;98661.25;4964497;28;20177;-72
2021/09/18 13:24:35;;;;;;;3.67;3.30;;;;;;;22.01;48.18;98656.94;4958141;28;20046;-72
2021/09/18 13:27:01;;;;;;;4.10;2.55;;;;;;;22.52;46.54;98662.28;4964568;28;20027;-72
2021/09/18 13:29:26;;;;;;;3.05;2.60;;;;;;;22.46;45.80;98658.28;4960187;28;20031;-72
2021/09/18 13:31:53;;;;;;;3.08;2.60;;;;;;;22.37;46.54;98652.78;4965917;28;20031;-72
2021/09/18 13:34:18;;;;;;;3.97;2.85;;;;;;;21.45;48.16;98654.41;4961476;28;20035;-72
2021/09/18 13:36:44;;;;;;;3.20;2.80;;;;;;;22.24;47.48;98656.25;4959556;28;20415;-72
2021/09/18 13:39:09;;;;;;;3.75;3.08;;;;;;;22.20;46.64;98656.56;4960107;28;20543;-72
2021/09/18 13:41:34;;;;;;;3.47;2.67;;;;;;;22.53;47.40;98650.75;4959061;28;20114;-72
2021/09/18 13:44:00;;;;;;;5.47;2.40;;;;;;;21.67;48.03;98648.59;4960838;28;20030;-72
2021/09/18 13:46:25;;;;;;;3.03;2.63;;;;;;;22.34;47.16;98653.84;4961336;28;20110;-72
2021/09/18 13:48:51;;;;;;;4.47;2.50;;;;;;;22.52;46.10;98651.72;4956190;28;20031;-72
2021/09/18 13:51:16;;;;;;;2.63;2.42;;;;;;;22.53;46.41;98643.72;4958484;28;20059;-72
2021/09/18 13:53:42;;;;;;;2.83;2.60;;;;;;;22.26;46.38;98646.44;4962971;28;20047;-72
2021/09/18 13:56:07;;;;;;;2.80;2.60;;;;;;;22.35;44.59;98644.13;4959843;28;20066;-72
2021/09/18 13:58:34;;;;;;;2.55;2.35;;;;;;;22.00;46.47;98637.63;4956191;28;20495;-72
2021/09/18 14:00:59;;;;;;;3.40;2.65;;;;;;;21.09;48.59;98647.03;4964345;28;20054;-72
2021/09/18 14:03:25;;;;;;;6.95;2.60;;;;;;;21.15;49.45;98645.81;4958679;28;20113;-72
2021/09/18 14:05:50;;;;;;;3.50;2.63;;;;;;;21.05;50.78;98640.25;4957125;28;20053;-72
2021/09/18 14:08:16;;;;;;;2.85;2.65;;;;;;;20.63;51.56;98638.50;4959360;28;20058;-72
2021/09/18 14:10:41;;;;;;;4.35;2.38;;;;;;;20.63;50.25;98641.97;4958980;28;20033;-72
2021/09/18 14:13:06;;;;;;;3.22;2.90;;;;;;;20.56;50.54;98638.03;4955135;28;20035;-72
2021/09/18 14:15:32;;;;;;;6.05;3.60;;;;;;;20.47;50.46;98638.59;4956747;28;20053;-72
2021/09/18 14:17:57;;;;;;;3.22;2.92;;;;;;;20.74;49.81;98636.91;4954858;28;20066;-72
2021/09/18 14:20:23;;;;;;;2.85;2.65;;;;;;;20.94;49.59;98638.31;4961953;28;20034;-72
2021/09/18 14:22:48;;;;;;;2.70;2.40;;;;;;;21.40;47.59;98624.03;4963928;28;20050;-72
2021/09/18 14:25:14;;;;;;;2.67;2.47;;;;;;;21.89;45.56;98620.78;4961383;28;20031;-72
2021/09/18 14:27:39;;;;;;;2.90;2.60;;;;;;;21.65;46.45;98624.09;4956278;28;20026;-72
2021/09/18 14:30:06;;;;;;;4.35;2.70;;;;;;;21.91;47.76;98614.47;4962533;28;20038;-72
2021/09/18 14:32:32;;;;;;;4.57;2.10;;;;;;;22.08;47.08;98610.69;4962405;28;20035;-73
2021/09/18 14:34:57;;;;;;;6.53;2.58;;;;;;;22.10;45.87;98603.53;4956269;28;20019;-72
2021/09/18 14:37:23;;;;;;;3.58;2.63;;;;;;;22.42;45.17;98603.13;4958758;28;20027;-72
2021/09/18 14:39:48;;;;;;;3.03;2.72;;;;;;;22.41;44.40;98596.16;4964825;28;20035;-72
2021/09/18 14:42:14;;;;;;;3.63;3.15;;;;;;;22.24;45.22;98595.56;4959424;28;20033;-72
2021/09/18 14:44:40;;;;;;;4.72;2.60;;;;;;;22.48;44.63;98592.13;4964393;28;20407;-72
2021/09/18 14:47:05;;;;;;;2.65;2.45;;;;;;;22.50;45.36;98595.53;4958325;28;20023;-72
2021/09/18 14:49:31;;;;;;;4.65;2.63;;;;;;;22.40;45.33;98597.13;4959980;28;20081;-72
2021/09/18 14:51:56;;;;;;;3.50;2.42;;;;;;;21.58;46.42;98596.47;4964914;28;20027;-72
2021/09/18 14:54:21;;;;;;;2.42;2.10;;;;;;;21.89;47.95;98599.69;4961100;28;20456;-72
2021/09/18 14:56:47;;;;;;;2.47;2.30;;;;;;;22.02;43.24;98595.28;4961303;28;20420;-72
2021/09/18 14:59:12;;;;;;;3.22;2.22;;;;;;;22.09;43.87;98596.53;4961036;28;20078;-72
2021/09/18 15:01:39;;;;;;;2.70;2.50;;;;;;;22.01;43.03;98586.53;4956750;28;20066;-72
2021/09/18 15:04:05;;;;;;;3.17;2.58;;;;;;;21.50;44.21;98585.56;4962805;28;20035;-72
2021/09/18 15:06:30;;;;;;;2.53;2.33;;;;;;;21.83;40.69;98579.00;4961187;28;20027;-72
2021/09/18 15:08:55;;;;;;;2.03;1.92;;;;;;;22.00;40.60;98576.94;4958020;28;20055;-72
2021/09/18 15:11:21;;;;;;;4.32;2.47;;;;;;;21.76;41.47;98587.34;4962592;28;20396;-72
2021/09/18 15:13:46;;;;;;;2.13;2.03;;;;;;;21.84;41.50;98580.69;4960234;28;20027;-72
2021/09/18 15:16:11;;;;;;;2.45;2.25;;;;;;;21.86;41.60;98584.09;4963401;28;20507;-72
2021/09/18 15:18:37;;;;;;;3.58;2.33;;;;;;;21.77;42.99;98572.34;4957630;28;20047;-72
2021/09/18 15:21:02;;;;;;;2.30;2.10;;;;;;;21.78;42.72;98577.50;4952391;28;20027;-72
2021/09/18 15:23:28;;;;;;;2.40;2.20;;;;;;;21.69;42.18;98578.13;4965067;28;20485;-72
2021/09/18 15:25:53;;;;;;;4.65;2.20;;;;;;;21.85;42.27;98582.38;4967481;28;20031;-72
2021/09/18 15:28:19;;;;;;;2.47;2.28;;;;;;;22.03;42.19;98575.84;4962825;28;20484;-72
2021/09/18 15:30:44;;;;;;;2.50;2.30;;;;;;;22.03;42.48;98565.31;4961362;28;20031;-72
2021/09/18 15:33:12;;;;;;;2.22;2.03;;;;;;;21.76;43.20;98574.16;4964002;28;20026;-72
2021/09/18 15:35:37;;;;;;;2.80;2.60;;;;;;;21.70;44.23;98571.91;4957885;28;20080;-72
2021/09/18 15:38:03;;;;;;;2.80;2.60;;;;;;;21.86;45.71;98569.09;4961361;28;20027;-72
2021/09/18 15:40:29;;;;;;;2.92;2.30;;;;;;;21.77;44.42;98567.91;4956134;28;20118;-72
2021/09/18 15:42:54;;;;;;;3.22;2.60;;;;;;;21.44;46.84;98562.25;4961094;28;20539;-72
2021/09/18 15:45:20;;;;;;;4.60;2.55;;;;;;;21.13;47.19;98568.63;4961135;28;20380;-72
2021/09/18 15:47:45;;;;;;;2.58;2.38;;;;;;;21.39;46.21;98566.97;4955884;28;20019;-72
2021/09/18 15:50:11;;;;;;;3.15;2.60;;;;;;;21.53;45.97;98561.66;4959275;28;20070;-72
2021/09/18 15:52:36;;;;;;;3.05;2.72;;;;;;;21.46;46.62;98557.72;4960124;28;20038;-72
2021/09/18 15:55:02;;;;;;;5.47;2.22;;;;;;;21.26;47.94;98564.25;4960192;28;20019;-72
2021/09/18 15:57:28;;;;;;;4.82;2.67;;;;;;;21.07;48.34;98559.31;4962105;28;20094;-72
2021/09/18 15:59:53;;;;;;;8.95;2.72;;;;;;;21.26;47.50;98554.56;4957203;28;20130;-72
2021/09/18 16:02:18;;;;;;;2.95;2.65;;;;;;;21.36;46.25;98560.09;4960847;28;20026;-72
2021/09/18 16:04:44;;;;;;;2.95;2.75;;;;;;;21.37;46.03;98555.66;4956712;28;20097;-73
2021/09/18 16:07:09;;;;;;;3.15;2.90;;;;;;;21.08;46.87;98566.31;4960307;28;20074;-72
2021/09/18 16:09:34;;;;;;;2.28;2.17;;;;;;;21.26;44.72;98558.97;4960851;28;20502;-72
2021/09/18 16:12:00;;;;;;;2.65;2.45;;;;;;;21.18;45.65;98556.03;4955226;28;20019;-72
2021/09/18 16:14:28;;;;;;;3.10;2.80;;;;;;;20.92;47.85;98552.41;4958164;28;20055;-72
2021/09/18 16:16:54;;;;;;;4.82;2.80;;;;;;;20.87;47.59;98551.84;4962058;28;20058;-72
2021/09/18 16:19:19;;;;;;;3.00;2.70;;;;;;;20.96;47.12;98546.00;4963532;28;20454;-72
2021/09/18 16:21:44;;;;;;;4.15;2.83;;;;;;;20.81;48.90;98547.00;4957613;28;20480;-72
2021/09/18 16:24:11;;;;;;;3.00;2.65;;;;;;;20.79;48.72;98555.84;4965137;28;20019;-72
2021/09/18 16:26:36;;;;;;;4.65;3.10;;;;;;;20.53;50.18;98553.97;4958238;28;20424;-72
2021/09/18 16:29:02;;;;;;;4.68;3.30;;;;;;;20.32;51.57;98555.28;4964848;28;20031;-72
2021/09/18 16:31:27;;;;;;;3.22;2.90;;;;;;;20.08;53.78;98563.72;4964617;28;20030;-72
2021/09/18 16:33:53;;;;;;;3.30;3.00;;;;;;;20.04;54.65;98556.94;4956809;28;20031;-72
2021/09/18 16:36:18;;;;;;;4.03;3.30;;;;;;;19.73;56.24;98556.16;4957413;28;20084;-72
2021/09/18 16:38:45;;;;;;;4.28;3.75;;;;;;;19.48;58.70;98558.47;4960952;28;20068;-72
2021/09/18 16:41:11;;;;;;;6.50;4.28;;;;;;;19.34;59.13;98553.16;4962137;28;20031;-72
2021/09/18 16:43:36;;;;;;;5.68;4.57;;;;;;;19.37;60.36;98560.88;4960758;28;20027;-72
2021/09/18 16:46:01;;;;;;;5.97;4.60;;;;;;;19.01;61.89;98559.41;4958135;28;20026;-71
2021/09/18 16:48:27;;;;;;;6.90;4.65;;;;;;;18.84;63.02;98556.84;4960004;28;20023;-71
2021/09/18 16:50:53;;;;;;;5.82;4.38;;;;;;;18.88;63.41;98553.13;4963108;28;20042;-72
2021/09/18 16:53:19;;;;;;;5.78;3.78;;;;;;;18.64;64.53;98564.00;4963283;28;20027;-72
2021/09/18 16:55:44;;;;;;;5.57;3.55;;;;;;;18.52;64.96;98562.06;4953880;28;20019;-72
2021/09/18 16:58:09;;;;;;;7.03;3.90;;;;;;;18.33;66.17;98562.19;4959866;28;20113;-71
2021/09/18 17:00:35;;;;;;;4.65;3.70;;;;;;;18.02;67.46;98562.94;4961209;28;20023;-71
2021/09/18 17:03:00;;;;;;;3.88;3.58;;;;;;;17.78;68.37;98561.56;4968307;28;20069;-71
2021/09/18 17:05:26;;;;;;;4.10;3.70;;;;;;;17.78;68.85;98564.19;4957739;28;20039;-71
2021/09/18 17:07:51;;;;;;;6.07;4.40;;;;;;;17.73;69.18;98567.88;4959899;28;20060;-72
2021/09/18 17:10:17;;;;;;;7.30;4.32;;;;;;;17.67;69.59;98568.16;4964582;28;20031;-72
2021/09/18 17:12:43;;;;;;;5.95;4.15;;;;;;;17.51;70.00;98572.50;4961187;28;20535;-71
2021/09/18 17:15:08;;;;;;;5.25;4.18;;;;;;;17.42;70.18;98562.47;4958172;28;20158;-72
2021/09/18 17:17:34;;;;;;;5.70;3.75;;;;;;;17.40;70.26;98564.28;4964111;28;20045;-71
2021/09/18 17:20:00;;;;;;;4.82;4.30;;;;;;;17.16;71.87;98564.59;4967269;28;20053;-72
2021/09/18 17:22:25;;;;;;;7.78;4.25;;;;;;;17.01;71.47;98567.06;4961267;28;20029;-72
2021/09/18 17:24:51;;;;;;;5.57;4.43;;;;;;;16.90;72.75;98564.97;4961631;28;20034;-71
2021/09/18 17:27:17;;;;;;;5.35;4.20;;;;;;;16.79;73.39;98565.47;4956781;28;20051;-71
2021/09/18 17:29:42;;;;;;;6.10;4.65;;;;;;;16.75;73.07;98565.69;4963779;28;20158;-72
2021/09/18 17:32:07;;;;;;;6.80;4.80;;;;;;;16.66;73.03;98575.63;4957143;28;20065;-72
2021/09/18 17:34:33;;;;;;;6.18;4.60;;;;;;;16.70;72.26;98569.31;4957763;28;20420;-71
2021/09/18 17:36:58;;;;;;;7.65;4.57;;;;;;;16.54;72.22;98568.34;4961660;28;20403;-72
2021/09/18 17:39:24;;;;;;;8.27;5.00;;;;;;;16.41;72.77;98567.19;4959383;28;20023;-71
2021/09/18 17:41:49;;;;;;;4.85;4.35;;;;;;;16.47;70.72;98566.91;4955146;28;20026;-72
2021/09/18 17:44:14;;;;;;;7.20;4.50;;;;;;;16.47;70.11;98571.28;4959972;28;20429;-72
2021/09/18 17:46:40;;;;;;;4.82;4.38;;;;;;;16.44;71.06;98573.13;4962141;28;20019;-72
2021/09/18 17:49:06;;;;;;;6.97;4.50;;;;;;;16.36;72.52;98582.25;4962251;28;20519;-72
2021/09/18 17:51:32;;;;;;;7.95;4.43;;;;;;;16.11;73.61;98578.09;4965991;28;20050;-72
2021/09/18 17:53:58;;;;;;;6.30;4.25;;;;;;;16.09;72.00;98581.69;4961686;28;20035;-72
2021/09/18 17:56:23;;;;;;;6.32;4.47;;;;;;;16.03;72.25;98580.19;4957784;28;20027;-73
2021/09/18 17:58:48;;;;;;;5.68;5.13;;;;;;;16.02;73.04;98582.88;4954489;28;20465;-72
2021/09/18 18:01:14;;;;;;;7.00;5.05;;;;;;;16.01;72.71;98582.03;4960945;28;20098;-75
2021/09/18 18:03:40;;;;;;;6.05;4.80;;;;;;;16.00;73.04;98582.91;4958499;28;20029;-75
2021/09/18 18:06:05;;;;;;;6.43;5.28;;;;;;;15.94;74.27;98577.97;4961494;28;20055;-75
2021/09/18 18:08:30;;;;;;;7.10;5.32;;;;;;;15.81;76.17;98587.22;4963271;28;20117;-77
2021/09/18 18:10:56;;;;;;;6.40;5.80;;;;;;;15.66;77.61;98593.94;4963072;28;20482;-76
2021/09/18 18:13:22;;;;;;;7.65;6.32;;;;;;;15.58;78.46;98591.63;4955473;28;20091;-77
2021/09/18 18:15:47;;;;;;;7.88;5.90;;;;;;;15.58;78.91;98591.63;4957980;28;20465;-76
2021/09/18 18:18:13;;;;;;;7.43;6.22;;;;;;;15.45;79.93;98595.66;4961274;28;20058;-77
2021/09/18 18:20:38;;;;;;;6.30;5.70;;;;;;;15.37;80.82;98600.31;4957518;28;20027;-77
2021/09/18 18:23:03;;;;;;;8.70;6.15;;;;;;;15.25;81.35;98603.44;4964324;28;20059;-77
2021/09/18 18:25:29;;;;;;;7.78;5.90;;;;;;;15.09;82.25;98601.44;4957203;28;20047;-77
2021/09/18 18:27:54;;;;;;;7.43;5.97;;;;;;;15.04;82.52;98603.38;4965637;28;20045;-77
2021/09/18 18:30:20;;;;;;;8.50;5.97;;;;;;;15.00;82.88;98603.56;4954075;28;20034;-77
2021/09/18 18:32:45;;;;;;;12.13;6.22;;;;;;;14.94;83.37;98603.78;4959821;28;20158;-77
2021/09/18 18:35:11;;;;;;;8.57;6.13;;;;;;;14.96;83.97;98610.66;4960046;28;20039;-77
2021/09/18 18:37:36;;;;;;;9.82;6.80;;;;;;;14.85;84.03;98610.22;4954441;28;20058;-77
2021/09/18 18:40:09;;;;;;;8.43;7.15;;;;;;;14.88;84.22;98610.09;4967811;28;20030;-80